sensor_id;sensor_type;location;lat;lon;timestamp;temperature;humidity
55313;DHT22;46892;45.668;11.756;2023-06-19T00:02:09;22.00;73.70
55313;DHT22;46892;45.668;11.756;2023-06-19T00:04:35;22.00;73.40
55313;DHT22;46892;45.668;11.756;2023-06-19T00:07:01;22.00;73.60
55313;DHT22;46892;45.668;11.756;2023-06-19T00:09:27;21.90;75.10
55313;DHT22;46892;45.668;11.756;2023-06-19T00:11:52;21.80;75.50
55313;DHT22;46892;45.668;11.756;2023-06-19T00:14:18;21.80;75.00
55313;DHT22;46892;45.668;11.756;2023-06-19T00:16:44;21.80;74.90
55313;DHT22;46892;45.668;11.756;2023-06-19T00:19:10;21.70;75.80
55313;DHT22;46892;45.668;11.756;2023-06-19T00:21:38;21.60;75.70
55313;DHT22;46892;45.668;11.756;2023-06-19T00:24:04;21.70;75.30
55313;DHT22;46892;45.668;11.756;2023-06-19T00:26:30;21.60;76.60
55313;DHT22;46892;45.668;11.756;2023-06-19T00:28:56;21.50;76.50
55313;DHT22;46892;45.668;11.756;2023-06-19T00:31:22;21.50;76.50
55313;DHT22;46892;45.668;11.756;2023-06-19T00:33:48;21.40;77.20
55313;DHT22;46892;45.668;11.756;2023-06-19T00:36:15;21.40;77.20
55313;DHT22;46892;45.668;11.756;2023-06-19T00:38:41;21.40;77.10
55313;DHT22;46892;45.668;11.756;2023-06-19T00:41:07;21.30;76.80
55313;DHT22;46892;45.668;11.756;2023-06-19T00:43:34;21.30;76.90
55313;DHT22;46892;45.668;11.756;2023-06-19T00:46:01;21.30;77.30
55313;DHT22;46892;45.668;11.756;2023-06-19T00:48:28;21.20;77.60
55313;DHT22;46892;45.668;11.756;2023-06-19T00:50:56;21.20;77.80
55313;DHT22;46892;45.668;11.756;2023-06-19T00:53:23;21.20;78.00
55313;DHT22;46892;45.668;11.756;2023-06-19T00:55:50;21.10;78.00
55313;DHT22;46892;45.668;11.756;2023-06-19T00:58:17;21.10;77.70
55313;DHT22;46892;45.668;11.756;2023-06-19T01:00:44;21.10;78.20
55313;DHT22;46892;45.668;11.756;2023-06-19T01:03:10;21.10;77.60
55313;DHT22;46892;45.668;11.756;2023-06-19T01:05:35;21.00;77.90
55313;DHT22;46892;45.668;11.756;2023-06-19T01:10:46;20.90;78.50
55313;DHT22;46892;45.668;11.756;2023-06-19T01:13:22;20.90;77.90
55313;DHT22;46892;45.668;11.756;2023-06-19T01:15:49;20.90;77.70
55313;DHT22;46892;45.668;11.756;2023-06-19T01:18:15;20.80;78.30
55313;DHT22;46892;45.668;11.756;2023-06-19T01:20:42;20.80;78.60
55313;DHT22;46892;45.668;11.756;2023-06-19T01:23:08;20.70;79.00
55313;DHT22;46892;45.668;11.756;2023-06-19T01:25:35;20.70;78.50
55313;DHT22;46892;45.668;11.756;2023-06-19T01:28:02;20.70;78.60
55313;DHT22;46892;45.668;11.756;2023-06-19T01:30:29;20.70;78.30
55313;DHT22;46892;45.668;11.756;2023-06-19T01:33:00;20.60;78.70
55313;DHT22;46892;45.668;11.756;2023-06-19T01:35:33;20.60;78.80
55313;DHT22;46892;45.668;11.756;2023-06-19T01:38:01;20.50;79.00
55313;DHT22;46892;45.668;11.756;2023-06-19T01:40:27;20.50;78.80
55313;DHT22;46892;45.668;11.756;2023-06-19T01:42:58;20.60;78.50
55313;DHT22;46892;45.668;11.756;2023-06-19T01:45:28;20.50;78.60
55313;DHT22;46892;45.668;11.756;2023-06-19T01:47:54;20.40;79.10
55313;DHT22;46892;45.668;11.756;2023-06-19T01:50:23;20.40;78.90
55313;DHT22;46892;45.668;11.756;2023-06-19T01:52:50;20.50;78.70
55313;DHT22;46892;45.668;11.756;2023-06-19T01:55:16;20.50;78.50
55313;DHT22;46892;45.668;11.756;2023-06-19T01:57:41;20.50;78.40
55313;DHT22;46892;45.668;11.756;2023-06-19T02:00:07;20.40;78.20
55313;DHT22;46892;45.668;11.756;2023-06-19T02:02:36;20.40;79.50
55313;DHT22;46892;45.668;11.756;2023-06-19T02:05:01;20.30;78.90
55313;DHT22;46892;45.668;11.756;2023-06-19T02:07:27;20.40;78.30
55313;DHT22;46892;45.668;11.756;2023-06-19T02:09:53;20.40;78.20
55313;DHT22;46892;45.668;11.756;2023-06-19T02:12:19;20.40;78.30
55313;DHT22;46892;45.668;11.756;2023-06-19T02:14:44;20.30;78.50
55313;DHT22;46892;45.668;11.756;2023-06-19T02:17:10;20.20;78.80
55313;DHT22;46892;45.668;11.756;2023-06-19T02:19:36;20.20;79.40
55313;DHT22;46892;45.668;11.756;2023-06-19T02:22:02;20.20;79.40
55313;DHT22;46892;45.668;11.756;2023-06-19T02:24:28;20.20;79.20
55313;DHT22;46892;45.668;11.756;2023-06-19T02:26:53;20.20;79.10
55313;DHT22;46892;45.668;11.756;2023-06-19T02:29:19;20.20;79.30
55313;DHT22;46892;45.668;11.756;2023-06-19T02:31:45;20.30;79.20
55313;DHT22;46892;45.668;11.756;2023-06-19T02:34:11;20.20;79.50
55313;DHT22;46892;45.668;11.756;2023-06-19T02:36:37;20.20;79.50
55313;DHT22;46892;45.668;11.756;2023-06-19T02:39:05;20.20;79.60
55313;DHT22;46892;45.668;11.756;2023-06-19T02:41:32;20.30;79.40
55313;DHT22;46892;45.668;11.756;2023-06-19T02:43:58;20.30;79.30
55313;DHT22;46892;45.668;11.756;2023-06-19T02:46:23;20.30;79.50
55313;DHT22;46892;45.668;11.756;2023-06-19T02:48:49;20.10;80.10
55313;DHT22;46892;45.668;11.756;2023-06-19T02:51:15;20.10;80.30
55313;DHT22;46892;45.668;11.756;2023-06-19T02:53:40;20.10;80.00
55313;DHT22;46892;45.668;11.756;2023-06-19T02:56:07;20.10;79.70
55313;DHT22;46892;45.668;11.756;2023-06-19T02:58:33;20.10;80.40
55313;DHT22;46892;45.668;11.756;2023-06-19T03:01:00;20.20;80.60
55313;DHT22;46892;45.668;11.756;2023-06-19T03:03:26;20.10;79.70
55313;DHT22;46892;45.668;11.756;2023-06-19T03:05:51;20.00;79.80
55313;DHT22;46892;45.668;11.756;2023-06-19T03:08:17;20.00;80.20
55313;DHT22;46892;45.668;11.756;2023-06-19T03:10:43;20.00;79.80
55313;DHT22;46892;45.668;11.756;2023-06-19T03:13:09;20.00;80.30
55313;DHT22;46892;45.668;11.756;2023-06-19T03:15:34;20.00;81.00
55313;DHT22;46892;45.668;11.756;2023-06-19T03:18:00;20.10;81.00
55313;DHT22;46892;45.668;11.756;2023-06-19T03:20:30;20.20;80.50
55313;DHT22;46892;45.668;11.756;2023-06-19T03:22:55;20.10;80.90
55313;DHT22;46892;45.668;11.756;2023-06-19T03:25:21;20.10;81.30
55313;DHT22;46892;45.668;11.756;2023-06-19T03:27:47;20.20;81.50
55313;DHT22;46892;45.668;11.756;2023-06-19T03:30:12;20.20;81.00
55313;DHT22;46892;45.668;11.756;2023-06-19T03:32:38;20.20;81.10
55313;DHT22;46892;45.668;11.756;2023-06-19T03:35:04;20.30;80.80
55313;DHT22;46892;45.668;11.756;2023-06-19T03:37:30;20.30;80.90
55313;DHT22;46892;45.668;11.756;2023-06-19T03:39:58;20.50;80.70
55313;DHT22;46892;45.668;11.756;2023-06-19T03:42:24;20.40;81.00
55313;DHT22;46892;45.668;11.756;2023-06-19T03:44:49;20.30;80.90
55313;DHT22;46892;45.668;11.756;2023-06-19T03:47:16;20.30;80.50
55313;DHT22;46892;45.668;11.756;2023-06-19T03:49:42;20.20;80.80
55313;DHT22;46892;45.668;11.756;2023-06-19T03:52:08;20.20;81.00
55313;DHT22;46892;45.668;11.756;2023-06-19T03:54:33;20.30;80.60
55313;DHT22;46892;45.668;11.756;2023-06-19T03:56:59;20.30;81.30
55313;DHT22;46892;45.668;11.756;2023-06-19T03:59:25;20.30;80.70
55313;DHT22;46892;45.668;11.756;2023-06-19T04:01:51;20.30;81.00
55313;DHT22;46892;45.668;11.756;2023-06-19T04:04:17;20.30;81.10
55313;DHT22;46892;45.668;11.756;2023-06-19T04:06:43;20.30;81.00
55313;DHT22;46892;45.668;11.756;2023-06-19T04:09:08;20.30;81.00
55313;DHT22;46892;45.668;11.756;2023-06-19T04:11:34;20.30;81.10
55313;DHT22;46892;45.668;11.756;2023-06-19T04:14:00;20.20;81.80
55313;DHT22;46892;45.668;11.756;2023-06-19T04:16:25;20.20;81.60
55313;DHT22;46892;45.668;11.756;2023-06-19T04:18:51;20.20;81.70
55313;DHT22;46892;45.668;11.756;2023-06-19T04:21:17;20.30;81.80
55313;DHT22;46892;45.668;11.756;2023-06-19T04:23:43;20.30;82.00
55313;DHT22;46892;45.668;11.756;2023-06-19T04:26:08;20.30;81.40
55313;DHT22;46892;45.668;11.756;2023-06-19T04:28:34;20.40;82.10
55313;DHT22;46892;45.668;11.756;2023-06-19T04:31:00;20.40;81.60
55313;DHT22;46892;45.668;11.756;2023-06-19T04:33:29;20.50;81.50
55313;DHT22;46892;45.668;11.756;2023-06-19T04:35:55;20.60;81.20
55313;DHT22;46892;45.668;11.756;2023-06-19T04:38:21;20.50;81.50
55313;DHT22;46892;45.668;11.756;2023-06-19T04:40:50;20.60;81.10
55313;DHT22;46892;45.668;11.756;2023-06-19T04:43:17;20.60;81.00
55313;DHT22;46892;45.668;11.756;2023-06-19T04:45:43;20.60;81.10
55313;DHT22;46892;45.668;11.756;2023-06-19T04:48:08;20.70;80.80
55313;DHT22;46892;45.668;11.756;2023-06-19T04:50:34;20.80;79.40
55313;DHT22;46892;45.668;11.756;2023-06-19T04:53:00;20.80;79.80
55313;DHT22;46892;45.668;11.756;2023-06-19T04:55:26;20.90;79.80
55313;DHT22;46892;45.668;11.756;2023-06-19T04:57:52;20.90;79.50
55313;DHT22;46892;45.668;11.756;2023-06-19T05:00:18;21.00;79.20
55313;DHT22;46892;45.668;11.756;2023-06-19T05:02:49;21.00;79.90
55313;DHT22;46892;45.668;11.756;2023-06-19T05:05:16;21.10;79.50
55313;DHT22;46892;45.668;11.756;2023-06-19T05:07:42;21.20;78.30
55313;DHT22;46892;45.668;11.756;2023-06-19T05:10:08;21.20;78.60
55313;DHT22;46892;45.668;11.756;2023-06-19T05:12:35;21.20;79.30
55313;DHT22;46892;45.668;11.756;2023-06-19T05:15:01;21.20;79.20
55313;DHT22;46892;45.668;11.756;2023-06-19T05:17:27;21.30;78.40
55313;DHT22;46892;45.668;11.756;2023-06-19T05:19:53;21.30;78.50
55313;DHT22;46892;45.668;11.756;2023-06-19T05:22:19;21.30;78.50
55313;DHT22;46892;45.668;11.756;2023-06-19T05:24:47;21.30;78.00
55313;DHT22;46892;45.668;11.756;2023-06-19T05:27:13;21.30;77.60
55313;DHT22;46892;45.668;11.756;2023-06-19T05:29:38;21.30;77.40
55313;DHT22;46892;45.668;11.756;2023-06-19T05:32:05;21.30;77.50
55313;DHT22;46892;45.668;11.756;2023-06-19T05:34:30;21.50;77.60
55313;DHT22;46892;45.668;11.756;2023-06-19T05:36:57;21.50;77.90
55313;DHT22;46892;45.668;11.756;2023-06-19T05:39:23;21.60;77.80
55313;DHT22;46892;45.668;11.756;2023-06-19T05:41:49;21.70;77.80
55313;DHT22;46892;45.668;11.756;2023-06-19T05:44:15;21.80;78.50
55313;DHT22;46892;45.668;11.756;2023-06-19T05:46:42;22.00;78.80
55313;DHT22;46892;45.668;11.756;2023-06-19T05:49:08;22.30;77.70
55313;DHT22;46892;45.668;11.756;2023-06-19T05:51:34;22.70;76.60
55313;DHT22;46892;45.668;11.756;2023-06-19T05:54:00;22.80;75.80
55313;DHT22;46892;45.668;11.756;2023-06-19T05:56:32;23.10;74.30
55313;DHT22;46892;45.668;11.756;2023-06-19T05:59:02;23.20;77.80
55313;DHT22;46892;45.668;11.756;2023-06-19T06:01:31;23.40;72.20
55313;DHT22;46892;45.668;11.756;2023-06-19T06:03:56;23.70;71.80
55313;DHT22;46892;45.668;11.756;2023-06-19T06:06:23;23.90;70.20
55313;DHT22;46892;45.668;11.756;2023-06-19T06:08:49;24.20;71.40
55313;DHT22;46892;45.668;11.756;2023-06-19T06:11:17;24.40;71.30
55313;DHT22;46892;45.668;11.756;2023-06-19T06:13:42;24.70;69.50
55313;DHT22;46892;45.668;11.756;2023-06-19T06:16:08;24.70;69.10
55313;DHT22;46892;45.668;11.756;2023-06-19T06:18:34;24.80;67.40
55313;DHT22;46892;45.668;11.756;2023-06-19T06:20:59;24.80;68.20
55313;DHT22;46892;45.668;11.756;2023-06-19T06:23:25;25.00;67.00
55313;DHT22;46892;45.668;11.756;2023-06-19T06:25:51;25.10;66.40
55313;DHT22;46892;45.668;11.756;2023-06-19T06:28:17;25.20;67.60
55313;DHT22;46892;45.668;11.756;2023-06-19T06:30:43;25.40;68.80
55313;DHT22;46892;45.668;11.756;2023-06-19T06:33:09;25.50;67.40
55313;DHT22;46892;45.668;11.756;2023-06-19T06:35:35;25.60;65.60
55313;DHT22;46892;45.668;11.756;2023-06-19T06:38:02;25.70;63.50
55313;DHT22;46892;45.668;11.756;2023-06-19T06:40:28;25.50;64.70
55313;DHT22;46892;45.668;11.756;2023-06-19T06:42:53;25.60;67.70
55313;DHT22;46892;45.668;11.756;2023-06-19T06:45:19;25.50;64.50
55313;DHT22;46892;45.668;11.756;2023-06-19T06:47:45;25.30;64.20
55313;DHT22;46892;45.668;11.756;2023-06-19T06:50:11;25.40;64.90
55313;DHT22;46892;45.668;11.756;2023-06-19T06:52:37;25.30;64.20
55313;DHT22;46892;45.668;11.756;2023-06-19T06:55:04;25.20;65.00
55313;DHT22;46892;45.668;11.756;2023-06-19T06:57:30;25.20;64.30
55313;DHT22;46892;45.668;11.756;2023-06-19T06:59:56;25.10;63.70
55313;DHT22;46892;45.668;11.756;2023-06-19T07:02:21;25.20;64.70
55313;DHT22;46892;45.668;11.756;2023-06-19T07:04:48;25.40;65.60
55313;DHT22;46892;45.668;11.756;2023-06-19T07:07:13;25.60;66.90
55313;DHT22;46892;45.668;11.756;2023-06-19T07:09:39;25.80;62.40
55313;DHT22;46892;45.668;11.756;2023-06-19T07:12:05;25.90;62.10
55313;DHT22;46892;45.668;11.756;2023-06-19T07:14:32;26.00;61.60
55313;DHT22;46892;45.668;11.756;2023-06-19T07:16:58;26.00;62.30
55313;DHT22;46892;45.668;11.756;2023-06-19T07:19:24;26.00;61.10
55313;DHT22;46892;45.668;11.756;2023-06-19T07:21:50;26.00;61.00
55313;DHT22;46892;45.668;11.756;2023-06-19T07:24:16;26.00;61.50
55313;DHT22;46892;45.668;11.756;2023-06-19T07:26:42;26.10;59.00
55313;DHT22;46892;45.668;11.756;2023-06-19T07:29:08;26.20;60.50
55313;DHT22;46892;45.668;11.756;2023-06-19T07:31:33;26.20;61.50
55313;DHT22;46892;45.668;11.756;2023-06-19T07:33:59;26.30;61.70
55313;DHT22;46892;45.668;11.756;2023-06-19T07:36:25;26.50;60.20
55313;DHT22;46892;45.668;11.756;2023-06-19T07:38:52;26.60;60.90
55313;DHT22;46892;45.668;11.756;2023-06-19T07:41:17;26.60;58.40
55313;DHT22;46892;45.668;11.756;2023-06-19T07:43:43;26.50;58.90
55313;DHT22;46892;45.668;11.756;2023-06-19T07:46:09;26.60;60.40
55313;DHT22;46892;45.668;11.756;2023-06-19T07:48:35;26.70;59.90
55313;DHT22;46892;45.668;11.756;2023-06-19T07:51:01;26.80;60.70
55313;DHT22;46892;45.668;11.756;2023-06-19T07:53:27;26.90;59.20
55313;DHT22;46892;45.668;11.756;2023-06-19T07:55:52;27.00;58.90
55313;DHT22;46892;45.668;11.756;2023-06-19T07:58:18;27.10;58.10
55313;DHT22;46892;45.668;11.756;2023-06-19T08:00:44;27.10;59.40
55313;DHT22;46892;45.668;11.756;2023-06-19T08:03:09;27.10;58.30
55313;DHT22;46892;45.668;11.756;2023-06-19T08:05:35;27.00;58.30
55313;DHT22;46892;45.668;11.756;2023-06-19T08:08:01;26.80;60.10
55313;DHT22;46892;45.668;11.756;2023-06-19T08:10:27;26.90;58.60
55313;DHT22;46892;45.668;11.756;2023-06-19T08:12:53;27.00;59.20
55313;DHT22;46892;45.668;11.756;2023-06-19T08:15:19;27.10;58.90
55313;DHT22;46892;45.668;11.756;2023-06-19T08:17:45;27.20;60.40
55313;DHT22;46892;45.668;11.756;2023-06-19T08:20:11;27.20;57.70
55313;DHT22;46892;45.668;11.756;2023-06-19T08:22:36;27.20;59.00
55313;DHT22;46892;45.668;11.756;2023-06-19T08:25:03;27.20;57.50
55313;DHT22;46892;45.668;11.756;2023-06-19T08:27:29;27.30;58.50
55313;DHT22;46892;45.668;11.756;2023-06-19T08:29:55;27.30;58.90
55313;DHT22;46892;45.668;11.756;2023-06-19T08:32:21;27.30;57.90
55313;DHT22;46892;45.668;11.756;2023-06-19T08:34:46;27.30;58.50
55313;DHT22;46892;45.668;11.756;2023-06-19T08:37:12;27.30;56.60
55313;DHT22;46892;45.668;11.756;2023-06-19T08:39:38;27.20;59.10
55313;DHT22;46892;45.668;11.756;2023-06-19T08:42:08;27.00;57.10
55313;DHT22;46892;45.668;11.756;2023-06-19T08:44:35;26.90;60.70
55313;DHT22;46892;45.668;11.756;2023-06-19T08:47:05;27.00;59.00
55313;DHT22;46892;45.668;11.756;2023-06-19T08:49:33;27.10;57.40
55313;DHT22;46892;45.668;11.756;2023-06-19T08:51:59;27.20;56.10
55313;DHT22;46892;45.668;11.756;2023-06-19T08:54:25;27.20;57.30
55313;DHT22;46892;45.668;11.756;2023-06-19T08:56:51;27.30;58.00
55313;DHT22;46892;45.668;11.756;2023-06-19T08:59:19;27.30;57.00
55313;DHT22;46892;45.668;11.756;2023-06-19T09:01:50;27.20;57.40
55313;DHT22;46892;45.668;11.756;2023-06-19T09:04:22;27.00;56.30
55313;DHT22;46892;45.668;11.756;2023-06-19T09:06:52;26.90;56.80
55313;DHT22;46892;45.668;11.756;2023-06-19T09:09:21;26.80;58.10
55313;DHT22;46892;45.668;11.756;2023-06-19T09:12:16;26.70;58.30
55313;DHT22;46892;45.668;11.756;2023-06-19T09:14:46;26.90;59.10
55313;DHT22;46892;45.668;11.756;2023-06-19T09:17:17;27.00;58.40
55313;DHT22;46892;45.668;11.756;2023-06-19T09:19:53;27.10;58.40
55313;DHT22;46892;45.668;11.756;2023-06-19T09:22:23;27.10;57.50
55313;DHT22;46892;45.668;11.756;2023-06-19T09:24:50;27.10;59.10
55313;DHT22;46892;45.668;11.756;2023-06-19T09:27:17;27.00;57.50
55313;DHT22;46892;45.668;11.756;2023-06-19T09:29:46;27.10;58.40
55313;DHT22;46892;45.668;11.756;2023-06-19T09:32:23;27.20;57.90
55313;DHT22;46892;45.668;11.756;2023-06-19T09:34:54;27.30;58.50
55313;DHT22;46892;45.668;11.756;2023-06-19T09:37:25;27.40;60.30
55313;DHT22;46892;45.668;11.756;2023-06-19T09:39:54;27.40;54.60
55313;DHT22;46892;45.668;11.756;2023-06-19T09:42:27;27.50;56.40
55313;DHT22;46892;45.668;11.756;2023-06-19T09:45:06;27.40;55.30
55313;DHT22;46892;45.668;11.756;2023-06-19T09:47:36;27.50;55.30
55313;DHT22;46892;45.668;11.756;2023-06-19T09:50:03;27.60;55.20
55313;DHT22;46892;45.668;11.756;2023-06-19T09:52:29;27.60;54.00
55313;DHT22;46892;45.668;11.756;2023-06-19T09:54:56;27.60;54.50
55313;DHT22;46892;45.668;11.756;2023-06-19T09:57:23;27.30;54.10
55313;DHT22;46892;45.668;11.756;2023-06-19T09:59:56;27.30;53.80
55313;DHT22;46892;45.668;11.756;2023-06-19T10:02:26;27.30;54.90
55313;DHT22;46892;45.668;11.756;2023-06-19T10:04:55;27.40;58.30
55313;DHT22;46892;45.668;11.756;2023-06-19T10:07:25;27.60;58.70
55313;DHT22;46892;45.668;11.756;2023-06-19T10:10:00;27.70;57.60
55313;DHT22;46892;45.668;11.756;2023-06-19T10:12:46;27.80;56.10
55313;DHT22;46892;45.668;11.756;2023-06-19T10:15:21;27.90;54.40
55313;DHT22;46892;45.668;11.756;2023-06-19T10:17:51;28.00;54.30
55313;DHT22;46892;45.668;11.756;2023-06-19T10:20:24;28.10;55.10
55313;DHT22;46892;45.668;11.756;2023-06-19T10:22:52;28.10;54.60
55313;DHT22;46892;45.668;11.756;2023-06-19T10:25:26;28.10;56.20
55313;DHT22;46892;45.668;11.756;2023-06-19T10:27:52;28.10;52.10
55313;DHT22;46892;45.668;11.756;2023-06-19T10:30:20;28.10;53.10
55313;DHT22;46892;45.668;11.756;2023-06-19T10:32:49;28.10;53.30
55313;DHT22;46892;45.668;11.756;2023-06-19T10:35:16;28.20;53.40
55313;DHT22;46892;45.668;11.756;2023-06-19T10:37:42;28.20;53.90
55313;DHT22;46892;45.668;11.756;2023-06-19T10:40:09;28.20;53.40
55313;DHT22;46892;45.668;11.756;2023-06-19T10:42:44;28.30;55.10
55313;DHT22;46892;45.668;11.756;2023-06-19T10:45:12;28.30;51.40
55313;DHT22;46892;45.668;11.756;2023-06-19T10:47:39;28.30;53.30
55313;DHT22;46892;45.668;11.756;2023-06-19T10:50:10;28.30;56.70
55313;DHT22;46892;45.668;11.756;2023-06-19T10:52:36;28.30;55.00
55313;DHT22;46892;45.668;11.756;2023-06-19T10:55:04;28.40;56.10
55313;DHT22;46892;45.668;11.756;2023-06-19T10:57:30;28.50;55.70
55313;DHT22;46892;45.668;11.756;2023-06-19T10:59:57;28.50;56.30
55313;DHT22;46892;45.668;11.756;2023-06-19T11:02:24;28.70;56.30
55313;DHT22;46892;45.668;11.756;2023-06-19T11:04:54;28.70;55.90
55313;DHT22;46892;45.668;11.756;2023-06-19T11:07:20;28.70;54.90
55313;DHT22;46892;45.668;11.756;2023-06-19T11:09:48;28.70;53.70
55313;DHT22;46892;45.668;11.756;2023-06-19T11:12:21;28.70;54.50
55313;DHT22;46892;45.668;11.756;2023-06-19T11:14:48;28.70;54.50
55313;DHT22;46892;45.668;11.756;2023-06-19T11:17:15;28.70;55.30
55313;DHT22;46892;45.668;11.756;2023-06-19T11:19:40;28.70;53.80
55313;DHT22;46892;45.668;11.756;2023-06-19T11:22:09;28.60;50.80
55313;DHT22;46892;45.668;11.756;2023-06-19T11:24:35;28.50;51.80
55313;DHT22;46892;45.668;11.756;2023-06-19T11:27:00;28.60;53.80
55313;DHT22;46892;45.668;11.756;2023-06-19T11:29:29;28.50;55.10
55313;DHT22;46892;45.668;11.756;2023-06-19T11:32:09;28.50;54.70
55313;DHT22;46892;45.668;11.756;2023-06-19T11:34:36;28.60;55.70
55313;DHT22;46892;45.668;11.756;2023-06-19T11:37:15;28.70;54.90
55313;DHT22;46892;45.668;11.756;2023-06-19T11:39:46;28.70;53.90
55313;DHT22;46892;45.668;11.756;2023-06-19T11:42:13;28.70;54.10
55313;DHT22;46892;45.668;11.756;2023-06-19T11:45:03;28.80;53.00
55313;DHT22;46892;45.668;11.756;2023-06-19T11:47:31;28.70;51.50
55313;DHT22;46892;45.668;11.756;2023-06-19T11:49:58;28.70;51.20
55313;DHT22;46892;45.668;11.756;2023-06-19T11:52:24;28.80;54.10
55313;DHT22;46892;45.668;11.756;2023-06-19T11:54:50;28.80;56.30
55313;DHT22;46892;45.668;11.756;2023-06-19T11:57:15;28.70;53.80
55313;DHT22;46892;45.668;11.756;2023-06-19T11:59:42;28.70;54.60
55313;DHT22;46892;45.668;11.756;2023-06-19T12:02:08;28.70;55.40
55313;DHT22;46892;45.668;11.756;2023-06-19T12:04:35;28.70;56.50
55313;DHT22;46892;45.668;11.756;2023-06-19T12:07:01;28.40;54.00
55313;DHT22;46892;45.668;11.756;2023-06-19T12:09:27;28.40;55.30
55313;DHT22;46892;45.668;11.756;2023-06-19T12:11:53;28.30;57.40
55313;DHT22;46892;45.668;11.756;2023-06-19T12:14:19;28.30;58.20
55313;DHT22;46892;45.668;11.756;2023-06-19T12:16:46;28.50;59.80
55313;DHT22;46892;45.668;11.756;2023-06-19T12:19:12;28.60;57.00
55313;DHT22;46892;45.668;11.756;2023-06-19T12:21:38;28.50;54.10
55313;DHT22;46892;45.668;11.756;2023-06-19T12:24:04;28.60;55.90
55313;DHT22;46892;45.668;11.756;2023-06-19T12:26:30;28.60;56.80
55313;DHT22;46892;45.668;11.756;2023-06-19T12:28:56;28.60;57.10
55313;DHT22;46892;45.668;11.756;2023-06-19T12:31:22;28.50;56.40
55313;DHT22;46892;45.668;11.756;2023-06-19T12:33:48;28.60;59.80
55313;DHT22;46892;45.668;11.756;2023-06-19T12:36:16;28.50;57.60
55313;DHT22;46892;45.668;11.756;2023-06-19T12:38:42;28.50;57.50
55313;DHT22;46892;45.668;11.756;2023-06-19T12:41:08;28.60;56.50
55313;DHT22;46892;45.668;11.756;2023-06-19T12:43:34;28.70;56.00
55313;DHT22;46892;45.668;11.756;2023-06-19T12:46:00;28.80;54.10
55313;DHT22;46892;45.668;11.756;2023-06-19T12:48:26;28.70;58.20
55313;DHT22;46892;45.668;11.756;2023-06-19T12:50:53;28.60;56.80
55313;DHT22;46892;45.668;11.756;2023-06-19T12:53:18;28.50;54.40
55313;DHT22;46892;45.668;11.756;2023-06-19T12:55:44;28.70;55.70
55313;DHT22;46892;45.668;11.756;2023-06-19T12:58:10;28.80;55.90
55313;DHT22;46892;45.668;11.756;2023-06-19T13:00:37;28.80;55.60
55313;DHT22;46892;45.668;11.756;2023-06-19T13:03:03;28.90;56.70
55313;DHT22;46892;45.668;11.756;2023-06-19T13:05:29;29.00;56.00
55313;DHT22;46892;45.668;11.756;2023-06-19T13:07:54;29.20;52.80
55313;DHT22;46892;45.668;11.756;2023-06-19T13:10:20;29.20;51.80
55313;DHT22;46892;45.668;11.756;2023-06-19T13:12:46;29.20;53.20
55313;DHT22;46892;45.668;11.756;2023-06-19T13:15:12;29.00;52.70
55313;DHT22;46892;45.668;11.756;2023-06-19T13:17:37;29.10;55.50
55313;DHT22;46892;45.668;11.756;2023-06-19T13:20:04;29.00;51.70
55313;DHT22;46892;45.668;11.756;2023-06-19T13:22:31;29.00;53.50
55313;DHT22;46892;45.668;11.756;2023-06-19T13:24:57;29.20;55.80
55313;DHT22;46892;45.668;11.756;2023-06-19T13:27:23;29.20;53.60
55313;DHT22;46892;45.668;11.756;2023-06-19T13:29:48;29.30;51.80
55313;DHT22;46892;45.668;11.756;2023-06-19T13:32:14;29.40;53.70
55313;DHT22;46892;45.668;11.756;2023-06-19T13:34:40;29.50;50.70
55313;DHT22;46892;45.668;11.756;2023-06-19T13:37:06;29.60;50.00
55313;DHT22;46892;45.668;11.756;2023-06-19T13:39:31;29.60;48.50
55313;DHT22;46892;45.668;11.756;2023-06-19T13:41:57;29.70;45.70
55313;DHT22;46892;45.668;11.756;2023-06-19T13:44:26;29.70;46.10
55313;DHT22;46892;45.668;11.756;2023-06-19T13:46:51;29.70;46.40
55313;DHT22;46892;45.668;11.756;2023-06-19T13:49:17;29.90;49.30
55313;DHT22;46892;45.668;11.756;2023-06-19T13:51:43;30.10;48.20
55313;DHT22;46892;45.668;11.756;2023-06-19T13:54:09;30.20;49.50
55313;DHT22;46892;45.668;11.756;2023-06-19T13:56:35;30.20;50.20
55313;DHT22;46892;45.668;11.756;2023-06-19T13:59:02;30.20;50.60
55313;DHT22;46892;45.668;11.756;2023-06-19T14:01:28;30.20;49.10
55313;DHT22;46892;45.668;11.756;2023-06-19T14:03:54;30.30;49.40
55313;DHT22;46892;45.668;11.756;2023-06-19T14:06:19;30.30;46.50
55313;DHT22;46892;45.668;11.756;2023-06-19T14:08:45;30.20;44.90
55313;DHT22;46892;45.668;11.756;2023-06-19T14:11:11;30.20;45.20
55313;DHT22;46892;45.668;11.756;2023-06-19T14:13:37;30.30;46.50
55313;DHT22;46892;45.668;11.756;2023-06-19T14:16:03;30.40;45.90
55313;DHT22;46892;45.668;11.756;2023-06-19T14:18:29;30.30;47.00
55313;DHT22;46892;45.668;11.756;2023-06-19T14:20:54;30.30;46.20
55313;DHT22;46892;45.668;11.756;2023-06-19T14:23:21;30.40;44.90
55313;DHT22;46892;45.668;11.756;2023-06-19T14:25:47;30.50;45.70
55313;DHT22;46892;45.668;11.756;2023-06-19T14:28:12;30.40;43.60
55313;DHT22;46892;45.668;11.756;2023-06-19T14:30:39;30.40;44.40
55313;DHT22;46892;45.668;11.756;2023-06-19T14:33:05;30.40;44.20
55313;DHT22;46892;45.668;11.756;2023-06-19T14:35:32;30.40;45.50
55313;DHT22;46892;45.668;11.756;2023-06-19T14:37:58;30.50;44.40
55313;DHT22;46892;45.668;11.756;2023-06-19T14:40:23;30.50;44.60
55313;DHT22;46892;45.668;11.756;2023-06-19T14:42:49;30.40;43.80
55313;DHT22;46892;45.668;11.756;2023-06-19T14:45:15;30.30;44.60
55313;DHT22;46892;45.668;11.756;2023-06-19T14:47:41;30.30;44.40
55313;DHT22;46892;45.668;11.756;2023-06-19T14:50:07;30.30;43.80
55313;DHT22;46892;45.668;11.756;2023-06-19T14:52:33;30.50;44.30
55313;DHT22;46892;45.668;11.756;2023-06-19T14:54:59;30.50;44.90
55313;DHT22;46892;45.668;11.756;2023-06-19T14:57:25;30.50;44.20
55313;DHT22;46892;45.668;11.756;2023-06-19T14:59:51;30.60;45.00
55313;DHT22;46892;45.668;11.756;2023-06-19T15:02:17;30.50;43.80
55313;DHT22;46892;45.668;11.756;2023-06-19T15:04:42;30.40;45.90
55313;DHT22;46892;45.668;11.756;2023-06-19T15:07:08;30.50;46.80
55313;DHT22;46892;45.668;11.756;2023-06-19T15:09:34;30.50;46.70
55313;DHT22;46892;45.668;11.756;2023-06-19T15:11:59;30.50;45.70
55313;DHT22;46892;45.668;11.756;2023-06-19T15:14:26;30.50;45.00
55313;DHT22;46892;45.668;11.756;2023-06-19T15:16:52;30.50;45.10